In Rescue
 
Open Full Screen Window  High Contrast Mode
January 17, 2021 10:20 AM PST
Weather Information
Wind Direction
  ---
Wind Speed
  00 kt (0 mph)
Wind Gust
  00 kt (0 mph)
Altimeter
30.16 in
Visibility
10 SM
Temperature
15° C
59° F
Dewpoint
06° C
43° F
Humidity
55%
1hr Rain Fall
00.00 in.
24hr Rain Fall
00.00 in.
Sky Condition
Clear
VFR

METAR KCVH 171820Z AUTO 00000KT 10SM CLR 15/06 A3016 RMK A01

FAA Disclaimer: The data displayed is for advisory purposes only and is not to be used for flight planning or operations.